createdAt,value
2023-05-06T00:00:40.353Z,87.04
2023-05-06T00:03:08.492Z,87.55
2023-05-06T00:05:36.133Z,89.07
2023-05-06T00:08:03.399Z,89.27
2023-05-06T00:10:30.796Z,88.40
2023-05-06T00:12:58.205Z,87.52
2023-05-06T00:15:25.800Z,87.17
2023-05-06T00:17:53.177Z,86.83
2023-05-06T00:20:20.432Z,87.57
2023-05-06T00:22:47.964Z,88.35
2023-05-06T00:25:15.269Z,88.16
2023-05-06T00:27:42.530Z,87.32
2023-05-06T00:30:11.099Z,87.13
2023-05-06T00:32:38.635Z,87.40
2023-05-06T00:35:06.967Z,86.94
2023-05-06T00:37:34.625Z,87.03
2023-05-06T00:40:03.331Z,87.55
2023-05-06T00:42:30.850Z,88.57
2023-05-06T00:44:58.147Z,87.74
2023-05-06T00:47:26.482Z,87.56
2023-05-06T00:49:53.969Z,87.16
2023-05-06T00:52:21.336Z,86.93
2023-05-06T00:54:49.247Z,87.37
2023-05-06T00:57:16.549Z,87.52
2023-05-06T00:59:44.497Z,88.46
2023-05-06T01:02:12.017Z,87.97
2023-05-06T01:04:41.794Z,88.10
2023-05-06T01:07:12.535Z,87.59
2023-05-06T01:09:43.252Z,87.54
2023-05-06T01:12:20.388Z,87.80
2023-05-06T01:14:59.915Z,88.45
2023-05-06T01:17:28.729Z,89.25
2023-05-06T01:20:02.017Z,88.56
2023-05-06T01:22:31.578Z,88.03
2023-05-06T01:24:58.844Z,87.87
2023-05-06T01:27:26.143Z,87.83
2023-05-06T01:29:53.407Z,87.82
2023-05-06T01:32:26.624Z,88.53
2023-05-06T01:35:00.129Z,89.17
2023-05-06T01:37:40.577Z,89.03
2023-05-06T01:40:09.008Z,88.42
2023-05-06T01:42:38.920Z,88.85
2023-05-06T01:45:08.812Z,88.71
2023-05-06T01:47:37.224Z,89.14
2023-05-06T01:50:05.477Z,89.37
2023-05-06T01:52:32.849Z,90.16
2023-05-06T01:55:00.162Z,89.83
2023-05-06T01:57:28.852Z,88.67
2023-05-06T01:59:56.130Z,89.18
2023-05-06T02:02:24.617Z,89.32
2023-05-06T02:04:53.568Z,89.12
2023-05-06T02:07:20.857Z,90.19
2023-05-06T02:09:48.235Z,90.35
2023-05-06T02:12:15.406Z,89.28
2023-05-06T02:14:42.586Z,89.09
2023-05-06T02:17:09.843Z,88.75
2023-05-06T02:19:37.170Z,88.84
2023-05-06T02:22:04.358Z,88.85
2023-05-06T02:24:31.657Z,89.30
2023-05-06T02:26:58.921Z,89.15
2023-05-06T02:29:26.136Z,89.12
2023-05-06T02:31:53.435Z,88.92
2023-05-06T02:34:20.603Z,88.84
2023-05-06T02:36:47.807Z,88.95
2023-05-06T02:39:15.092Z,89.06
2023-05-06T02:41:42.245Z,90.29
2023-05-06T02:44:09.880Z,90.54
2023-05-06T02:46:37.081Z,90.41
2023-05-06T02:49:04.368Z,90.25
2023-05-06T02:51:32.250Z,90.12
2023-05-06T02:53:59.409Z,90.46
2023-05-06T02:56:27.078Z,90.21
2023-05-06T02:58:54.336Z,90.91
2023-05-06T03:01:21.754Z,91.12
2023-05-06T03:03:49.044Z,90.90
2023-05-06T03:06:16.276Z,90.75
2023-05-06T03:08:43.561Z,90.96
2023-05-06T03:11:10.734Z,91.18
2023-05-06T03:13:37.895Z,91.06
2023-05-06T03:16:05.454Z,92.69
2023-05-06T03:18:32.695Z,92.57
2023-05-06T03:21:01.681Z,92.12
2023-05-06T03:23:29.232Z,92.22
2023-05-06T03:25:56.615Z,92.18
2023-05-06T03:28:23.847Z,92.20
2023-05-06T03:30:50.973Z,92.69
2023-05-06T03:33:18.211Z,93.55
2023-05-06T03:35:45.551Z,93.25
2023-05-06T03:38:12.737Z,93.05
2023-05-06T03:40:40.003Z,92.75
2023-05-06T03:43:07.139Z,92.79
2023-05-06T03:45:34.347Z,92.90
2023-05-06T03:48:01.643Z,93.46
2023-05-06T03:50:28.854Z,93.26
2023-05-06T03:52:56.017Z,93.34
2023-05-06T03:55:23.282Z,93.27
2023-05-06T03:57:50.433Z,93.19
2023-05-06T04:00:18.146Z,93.23
2023-05-06T04:02:45.327Z,93.17
2023-05-06T04:05:12.684Z,94.11
2023-05-06T04:07:40.050Z,93.84
2023-05-06T04:10:08.567Z,93.60
2023-05-06T04:12:35.769Z,93.41
2023-05-06T04:15:03.333Z,93.47
2023-05-06T04:17:30.598Z,93.26
2023-05-06T04:19:58.225Z,93.23
2023-05-06T04:22:25.669Z,94.67
2023-05-06T04:24:52.817Z,94.22
2023-05-06T04:27:19.963Z,93.57
2023-05-06T04:29:47.176Z,93.88
2023-05-06T04:32:14.463Z,93.62
2023-05-06T04:34:41.966Z,93.57
2023-05-06T04:37:09.505Z,94.82
2023-05-06T04:39:39.720Z,94.48
2023-05-06T04:42:06.937Z,93.81
2023-05-06T04:44:34.697Z,93.34
2023-05-06T04:47:01.962Z,93.65
2023-05-06T04:49:29.160Z,93.91
2023-05-06T04:51:56.836Z,93.82
2023-05-06T04:54:24.026Z,94.21
2023-05-06T04:56:51.778Z,94.27
2023-05-06T04:59:19.004Z,93.68
2023-05-06T05:01:46.481Z,93.21
2023-05-06T05:04:13.767Z,93.38
2023-05-06T05:06:41.088Z,93.21
2023-05-06T05:09:08.383Z,93.30
2023-05-06T05:11:38.533Z,93.51
2023-05-06T05:14:05.784Z,93.32
2023-05-06T05:16:33.244Z,93.07
2023-05-06T05:19:02.931Z,93.06
2023-05-06T05:21:30.902Z,92.90
2023-05-06T05:23:58.129Z,94.05
2023-05-06T05:26:25.344Z,94.12
2023-05-06T05:28:52.529Z,93.32
2023-05-06T05:31:19.747Z,93.27
2023-05-06T05:33:46.972Z,92.77
2023-05-06T05:36:15.671Z,92.45
2023-05-06T05:38:42.882Z,91.98
2023-05-06T05:41:10.175Z,92.32
2023-05-06T05:43:37.394Z,92.07
2023-05-06T05:46:05.017Z,91.53
2023-05-06T05:48:33.172Z,91.38
2023-05-06T05:51:02.285Z,91.01
2023-05-06T05:53:29.488Z,90.94
2023-05-06T05:55:56.755Z,91.03
2023-05-06T05:58:24.040Z,91.47
2023-05-06T06:00:51.445Z,91.41
2023-05-06T06:03:19.306Z,91.02
2023-05-06T06:05:46.933Z,90.49
2023-05-06T06:08:14.224Z,90.07
2023-05-06T06:10:42.304Z,89.59
2023-05-06T06:13:09.572Z,89.87
2023-05-06T06:15:36.920Z,89.55
2023-05-06T06:18:04.334Z,89.31
2023-05-06T06:20:32.089Z,88.27
2023-05-06T06:22:59.324Z,88.25
2023-05-06T06:25:26.535Z,88.23
2023-05-06T06:27:56.041Z,88.28
2023-05-06T06:30:23.501Z,88.67
2023-05-06T06:32:53.246Z,88.59
2023-05-06T06:35:20.767Z,88.13
2023-05-06T06:37:48.228Z,87.31
2023-05-06T06:40:15.971Z,86.79
2023-05-06T06:42:43.218Z,86.65
2023-05-06T06:45:11.548Z,87.30
2023-05-06T06:47:39.201Z,87.09
2023-05-06T06:50:07.667Z,87.19
2023-05-06T06:52:35.950Z,87.15
2023-05-06T06:55:03.750Z,87.26
2023-05-06T06:57:30.934Z,86.77
2023-05-06T06:59:58.153Z,86.63
2023-05-06T07:02:25.801Z,87.30
2023-05-06T07:04:54.051Z,86.58
2023-05-06T07:07:21.318Z,86.57
2023-05-06T07:09:48.523Z,86.80
2023-05-06T07:12:15.765Z,86.84
2023-05-06T07:14:42.943Z,86.93
2023-05-06T07:17:10.300Z,87.23
2023-05-06T07:19:37.604Z,87.68
2023-05-06T07:22:04.755Z,87.58
2023-05-06T07:24:31.943Z,87.14
2023-05-06T07:26:59.190Z,86.41
2023-05-06T07:29:26.538Z,86.05
2023-05-06T07:31:53.778Z,86.22
2023-05-06T07:34:21.192Z,86.60
2023-05-06T07:36:48.528Z,86.86
2023-05-06T07:39:15.733Z,86.54
2023-05-06T07:41:43.009Z,86.21
2023-05-06T07:44:10.309Z,86.19
2023-05-06T07:46:37.848Z,86.51
2023-05-06T07:49:05.131Z,86.34
2023-05-06T07:51:32.325Z,86.82
2023-05-06T07:53:59.574Z,86.71
2023-05-06T07:56:26.995Z,86.21
2023-05-06T07:58:54.622Z,86.25
2023-05-06T08:01:21.803Z,86.84
2023-05-06T08:03:49.213Z,87.00
2023-05-06T08:06:16.619Z,87.17
2023-05-06T08:08:44.051Z,87.34
2023-05-06T08:11:11.343Z,87.33
2023-05-06T08:13:39.102Z,87.49
2023-05-06T08:16:07.150Z,87.70
2023-05-06T08:18:34.533Z,87.19
2023-05-06T08:21:02.034Z,87.71
2023-05-06T08:23:29.360Z,88.18
2023-05-06T08:25:56.703Z,88.11
2023-05-06T08:28:25.296Z,87.91
2023-05-06T08:30:52.858Z,88.34
2023-05-06T08:33:20.341Z,89.08
2023-05-06T08:35:48.347Z,89.69
2023-05-06T08:38:15.586Z,90.31
2023-05-06T08:40:44.662Z,91.19
2023-05-06T08:43:14.958Z,91.90
2023-05-06T08:45:42.914Z,92.53
2023-05-06T08:48:10.297Z,92.55
2023-05-06T08:50:42.797Z,92.80
2023-05-06T08:53:13.840Z,93.18
2023-05-06T08:55:43.016Z,93.17
2023-05-06T08:58:14.035Z,93.04
2023-05-06T09:00:41.501Z,92.40
2023-05-06T09:03:08.753Z,92.10
2023-05-06T09:05:36.006Z,92.25
2023-05-06T09:08:03.762Z,91.37
2023-05-06T09:10:33.849Z,91.47
2023-05-06T09:13:01.210Z,91.36
2023-05-06T09:15:40.090Z,92.10
2023-05-06T09:18:07.424Z,91.29
2023-05-06T09:20:35.596Z,90.41
2023-05-06T09:23:03.415Z,90.17
2023-05-06T09:25:30.917Z,89.43
2023-05-06T09:28:04.300Z,89.46
2023-05-06T09:30:31.540Z,89.76
2023-05-06T09:32:58.887Z,89.67
2023-05-06T09:35:30.378Z,90.27
2023-05-06T09:37:57.619Z,89.92
2023-05-06T09:40:25.336Z,90.55
2023-05-06T09:42:52.594Z,90.92
2023-05-06T09:45:20.136Z,91.15
2023-05-06T09:47:49.828Z,91.21
2023-05-06T09:50:17.548Z,90.72
2023-05-06T09:52:46.787Z,90.35
2023-05-06T09:55:15.063Z,89.59
2023-05-06T09:57:43.034Z,89.95
2023-05-06T10:00:12.656Z,89.60
2023-05-06T10:02:41.940Z,90.53
2023-05-06T10:05:10.750Z,90.91
2023-05-06T10:07:39.876Z,91.43
2023-05-06T10:10:11.732Z,91.21
2023-05-06T10:12:39.543Z,91.30
2023-05-06T10:15:08.800Z,92.02
2023-05-06T10:17:40.194Z,92.41
2023-05-06T10:20:12.428Z,91.61
2023-05-06T10:22:44.542Z,91.63
2023-05-06T10:25:17.370Z,90.39
2023-05-06T10:27:45.450Z,90.21
2023-05-06T10:30:16.152Z,90.44
2023-05-06T10:32:45.142Z,91.09
2023-05-06T10:35:21.610Z,90.85
2023-05-06T10:37:51.224Z,91.07
2023-05-06T10:40:19.325Z,90.01
2023-05-06T10:42:46.714Z,90.66
2023-05-06T10:45:15.742Z,90.97
2023-05-06T10:47:49.321Z,90.82
2023-05-06T10:50:22.970Z,91.36
2023-05-06T10:52:56.290Z,91.24
2023-05-06T10:55:29.915Z,90.84
2023-05-06T10:58:03.024Z,91.01
2023-05-06T11:00:33.045Z,90.21
2023-05-06T11:03:06.915Z,90.67
2023-05-06T11:05:40.664Z,90.27
2023-05-06T11:08:12.249Z,89.77
2023-05-06T11:10:39.778Z,89.38
2023-05-06T11:13:17.799Z,89.48
2023-05-06T11:15:46.861Z,90.16
2023-05-06T11:18:37.497Z,90.28
2023-05-06T11:21:08.297Z,90.58
2023-05-06T11:23:42.409Z,90.34
2023-05-06T11:26:11.577Z,90.72
2023-05-06T11:28:40.427Z,91.04
2023-05-06T11:31:08.878Z,91.51
2023-05-06T11:33:37.624Z,92.47
2023-05-06T11:36:05.755Z,93.21
2023-05-06T11:38:39.253Z,92.38
2023-05-06T11:41:07.757Z,93.13
2023-05-06T11:43:35.360Z,93.28
2023-05-06T11:46:02.953Z,93.87
2023-05-06T11:48:31.053Z,94.50
2023-05-06T11:51:01.337Z,94.87
2023-05-06T11:53:30.420Z,94.81
2023-05-06T11:55:57.857Z,94.74
2023-05-06T11:58:27.209Z,94.54
2023-05-06T12:00:59.916Z,94.96
2023-05-06T12:03:29.112Z,94.97
2023-05-06T12:05:57.134Z,95.35
2023-05-06T12:08:28.608Z,95.46
2023-05-06T12:11:00.227Z,95.18
2023-05-06T12:13:28.335Z,94.73
2023-05-06T12:15:56.918Z,94.61
2023-05-06T12:18:24.855Z,93.62
2023-05-06T12:20:55.697Z,94.07
2023-05-06T12:23:23.751Z,94.68
2023-05-06T12:25:57.220Z,94.84
2023-05-06T12:28:24.476Z,94.81
2023-05-06T12:30:51.826Z,94.68
2023-05-06T12:33:19.313Z,94.90
2023-05-06T12:35:46.864Z,94.75
2023-05-06T12:38:16.134Z,94.97
2023-05-06T12:40:45.360Z,95.34
2023-05-06T12:43:12.869Z,95.22
2023-05-06T12:45:40.894Z,94.86
2023-05-06T12:48:15.752Z,94.95
2023-05-06T12:50:45.790Z,94.87
2023-05-06T12:53:13.870Z,94.46
2023-05-06T12:55:42.816Z,95.13
2023-05-06T12:58:16.426Z,95.17
2023-05-06T13:00:43.814Z,95.30
2023-05-06T13:03:12.252Z,94.96
2023-05-06T13:05:39.571Z,95.37
2023-05-06T13:08:07.054Z,95.63
2023-05-06T13:10:34.472Z,96.36
2023-05-06T13:13:01.924Z,96.81
2023-05-06T13:15:29.336Z,96.91
2023-05-06T13:17:57.710Z,96.76
2023-05-06T13:20:26.336Z,96.82
2023-05-06T13:22:54.832Z,97.04
2023-05-06T13:25:23.282Z,97.13
2023-05-06T13:27:50.617Z,97.31
2023-05-06T13:30:18.108Z,97.67
2023-05-06T13:32:47.176Z,97.74
2023-05-06T13:35:14.556Z,97.09
2023-05-06T13:37:41.818Z,97.22
2023-05-06T13:40:10.305Z,97.38
2023-05-06T13:42:39.048Z,97.86
2023-05-06T13:45:07.647Z,98.07
2023-05-06T13:47:35.198Z,97.58
2023-05-06T13:50:04.199Z,97.10
2023-05-06T13:52:31.706Z,97.21
2023-05-06T13:54:59.088Z,97.32
2023-05-06T13:57:26.600Z,97.27
2023-05-06T13:59:54.059Z,97.05
2023-05-06T14:02:21.806Z,97.97
2023-05-06T14:04:49.671Z,98.11
2023-05-06T14:07:17.175Z,97.94
2023-05-06T14:09:44.582Z,98.02
2023-05-06T14:12:12.002Z,97.82
2023-05-06T14:14:39.298Z,98.10
2023-05-06T14:17:06.817Z,99.06
2023-05-06T14:19:34.834Z,99.25
2023-05-06T14:22:02.528Z,99.09
2023-05-06T14:24:29.998Z,99.13
2023-05-06T14:26:57.425Z,98.98
2023-05-06T14:29:25.038Z,99.40
2023-05-06T14:31:54.035Z,99.45
2023-05-06T14:34:21.665Z,99.54
2023-05-06T14:36:48.917Z,99.88
2023-05-06T14:39:16.225Z,99.69
2023-05-06T14:41:43.464Z,99.93
2023-05-06T14:44:11.059Z,100.00
2023-05-06T14:46:38.276Z,99.73
2023-05-06T14:49:05.865Z,99.40
2023-05-06T14:51:34.900Z,99.09
2023-05-06T14:54:03.092Z,98.80
2023-05-06T14:56:30.382Z,98.89
2023-05-06T14:58:58.041Z,98.51
2023-05-06T15:01:26.133Z,98.67
2023-05-06T15:03:53.763Z,98.74
2023-05-06T15:06:21.229Z,99.04
2023-05-06T15:08:48.579Z,99.36
2023-05-06T15:11:15.845Z,99.18
2023-05-06T15:13:43.461Z,98.87
2023-05-06T15:16:11.650Z,99.24
2023-05-06T15:18:42.123Z,99.34
2023-05-06T15:21:09.544Z,99.59
2023-05-06T15:23:38.093Z,100.00
2023-05-06T15:26:06.029Z,99.91
2023-05-06T15:28:33.709Z,100.00
2023-05-06T15:31:01.485Z,99.88
2023-05-06T15:33:28.793Z,100.00
2023-05-06T15:35:56.319Z,100.00
2023-05-06T15:38:23.684Z,100.00
2023-05-06T15:40:52.176Z,100.00
2023-05-06T15:43:23.751Z,100.00
2023-05-06T15:45:52.180Z,100.00
2023-05-06T15:48:22.965Z,100.00
2023-05-06T15:50:50.562Z,99.88
2023-05-06T15:53:20.379Z,100.00
2023-05-06T15:55:56.602Z,100.00
2023-05-06T15:58:25.827Z,100.00
2023-05-06T16:00:53.314Z,100.00
2023-05-06T16:03:20.938Z,100.00
2023-05-06T16:05:49.068Z,100.00
2023-05-06T16:08:16.358Z,100.00
2023-05-06T16:10:43.814Z,100.00
2023-05-06T16:13:11.641Z,100.00
2023-05-06T16:15:39.143Z,100.00
2023-05-06T16:18:07.103Z,100.00
2023-05-06T16:20:34.953Z,100.00
2023-05-06T16:23:03.397Z,100.00
2023-05-06T16:25:31.023Z,100.00
2023-05-06T16:27:58.513Z,100.00
2023-05-06T16:30:25.750Z,100.00
2023-05-06T16:32:53.502Z,100.00
2023-05-06T16:35:20.920Z,100.00
2023-05-06T16:37:48.184Z,100.00
2023-05-06T16:40:21.290Z,100.00
2023-05-06T16:42:49.709Z,100.00
2023-05-06T16:45:17.304Z,100.00
2023-05-06T16:47:45.058Z,100.00
2023-05-06T16:50:13.065Z,100.00
2023-05-06T16:52:41.154Z,100.00
2023-05-06T16:55:09.467Z,100.00
2023-05-06T16:57:37.036Z,100.00
2023-05-06T17:00:08.437Z,100.00
2023-05-06T17:02:36.312Z,100.00
2023-05-06T17:05:04.595Z,100.00
2023-05-06T17:07:32.157Z,100.00
2023-05-06T17:09:59.718Z,100.00
2023-05-06T17:12:27.307Z,100.00
2023-05-06T17:14:54.810Z,100.00
2023-05-06T17:17:25.183Z,100.00
2023-05-06T17:19:52.623Z,100.00
2023-05-06T17:22:21.698Z,100.00
2023-05-06T17:24:50.262Z,100.00
2023-05-06T17:27:18.869Z,100.00
2023-05-06T17:29:47.119Z,100.00
2023-05-06T17:32:14.582Z,100.00
2023-05-06T17:34:41.876Z,100.00
2023-05-06T17:37:09.306Z,100.00
2023-05-06T17:39:38.644Z,100.00
2023-05-06T17:42:06.043Z,100.00
2023-05-06T17:44:35.694Z,100.00
2023-05-06T17:47:03.051Z,100.00
2023-05-06T17:49:30.592Z,100.00
2023-05-06T17:51:59.532Z,100.00
2023-05-06T17:54:32.855Z,100.00
2023-05-06T17:57:01.247Z,100.00
2023-05-06T17:59:29.552Z,100.00
2023-05-06T18:01:57.226Z,100.00
2023-05-06T18:04:24.545Z,100.00
2023-05-06T18:06:52.105Z,100.00
2023-05-06T18:09:19.887Z,100.00
2023-05-06T18:11:47.256Z,100.00
2023-05-06T18:14:15.157Z,100.00
2023-05-06T18:16:42.499Z,100.00
2023-05-06T18:19:09.863Z,100.00
2023-05-06T18:21:37.361Z,100.00
2023-05-06T18:24:15.405Z,100.00
2023-05-06T18:26:45.693Z,100.00
2023-05-06T18:29:13.470Z,100.00
2023-05-06T18:31:40.764Z,100.00
2023-05-06T18:34:08.206Z,100.00
2023-05-06T18:36:36.799Z,100.00
2023-05-06T18:39:05.079Z,100.00
2023-05-06T18:41:32.441Z,100.00
2023-05-06T18:43:59.915Z,100.00
2023-05-06T18:46:27.878Z,100.00
2023-05-06T18:48:56.519Z,100.00
2023-05-06T18:51:24.221Z,100.00
2023-05-06T18:53:51.665Z,100.00
2023-05-06T18:56:19.014Z,100.00
2023-05-06T18:58:46.418Z,100.00
2023-05-06T19:01:13.967Z,100.00
2023-05-06T19:03:42.760Z,100.00
2023-05-06T19:06:11.024Z,100.00
2023-05-06T19:08:39.046Z,100.00
2023-05-06T19:11:06.568Z,100.00
2023-05-06T19:13:33.941Z,100.00
2023-05-06T19:16:01.323Z,100.00
2023-05-06T19:18:28.567Z,100.00
2023-05-06T19:20:56.386Z,100.00
2023-05-06T19:23:23.605Z,100.00
2023-05-06T19:25:50.848Z,100.00
2023-05-06T19:28:18.136Z,100.00
2023-05-06T19:30:45.771Z,100.00
2023-05-06T19:33:13.269Z,100.00
2023-05-06T19:35:40.798Z,100.00
2023-05-06T19:38:09.593Z,100.00
2023-05-06T19:40:37.286Z,100.00
2023-05-06T19:43:04.660Z,100.00
2023-05-06T19:45:33.713Z,100.00
2023-05-06T19:48:01.947Z,100.00
2023-05-06T19:50:31.608Z,100.00
2023-05-06T19:52:58.789Z,100.00
2023-05-06T19:55:26.404Z,100.00
2023-05-06T19:57:57.239Z,100.00
2023-05-06T20:00:25.908Z,100.00
2023-05-06T20:02:53.281Z,100.00
2023-05-06T20:05:20.656Z,100.00
2023-05-06T20:07:47.889Z,100.00
2023-05-06T20:10:17.200Z,100.00
2023-05-06T20:12:44.475Z,100.00
2023-05-06T20:15:12.275Z,100.00
2023-05-06T20:17:39.938Z,100.00
2023-05-06T20:20:10.283Z,100.00
2023-05-06T20:22:39.242Z,100.00
2023-05-06T20:25:09.778Z,100.00
2023-05-06T20:27:37.273Z,100.00
2023-05-06T20:30:06.454Z,100.00
2023-05-06T20:32:34.407Z,100.00
2023-05-06T20:35:01.837Z,100.00
2023-05-06T20:37:30.953Z,100.00
2023-05-06T20:39:59.055Z,100.00
2023-05-06T20:42:26.690Z,100.00
2023-05-06T20:44:54.212Z,100.00
2023-05-06T20:47:21.648Z,100.00
2023-05-06T20:49:48.900Z,100.00
2023-05-06T20:52:16.153Z,100.00
2023-05-06T20:54:45.403Z,100.00
2023-05-06T20:57:15.615Z,100.00
2023-05-06T20:59:43.413Z,100.00
2023-05-06T21:02:11.330Z,100.00
2023-05-06T21:04:38.747Z,100.00
2023-05-06T21:07:06.145Z,100.00
2023-05-06T21:09:33.601Z,100.00
2023-05-06T21:12:00.728Z,100.00
2023-05-06T21:14:28.205Z,100.00
2023-05-06T21:16:55.646Z,100.00
2023-05-06T21:19:23.031Z,100.00
2023-05-06T21:21:50.335Z,100.00
2023-05-06T21:24:17.612Z,100.00
2023-05-06T21:26:44.972Z,100.00
2023-05-06T21:29:12.326Z,100.00
2023-05-06T21:31:39.958Z,100.00
2023-05-06T21:34:10.848Z,100.00
2023-05-06T21:36:38.129Z,100.00
2023-05-06T21:39:09.103Z,100.00
2023-05-06T21:41:36.925Z,100.00
2023-05-06T21:44:06.363Z,100.00
2023-05-06T21:46:33.767Z,100.00
2023-05-06T21:49:01.667Z,100.00
2023-05-06T21:51:30.655Z,100.00
2023-05-06T21:53:57.928Z,100.00
2023-05-06T21:56:25.309Z,100.00
2023-05-06T21:58:53.812Z,100.00
2023-05-06T22:01:21.225Z,100.00
2023-05-06T22:03:49.348Z,100.00
2023-05-06T22:06:16.588Z,100.00
2023-05-06T22:08:44.106Z,100.00
2023-05-06T22:11:11.386Z,100.00
2023-05-06T22:13:39.044Z,100.00
2023-05-06T22:16:08.187Z,100.00
2023-05-06T22:18:36.284Z,100.00
2023-05-06T22:21:03.723Z,100.00
2023-05-06T22:23:31.084Z,100.00
2023-05-06T22:25:58.656Z,100.00
2023-05-06T22:28:27.534Z,100.00
2023-05-06T22:30:54.738Z,100.00
2023-05-06T22:33:22.013Z,100.00
2023-05-06T22:35:49.245Z,100.00
2023-05-06T22:38:16.465Z,100.00
2023-05-06T22:40:43.762Z,100.00
2023-05-06T22:43:10.999Z,100.00
2023-05-06T22:45:38.424Z,100.00
2023-05-06T22:48:06.009Z,100.00
2023-05-06T22:50:33.364Z,100.00
2023-05-06T22:53:10.295Z,100.00
2023-05-06T22:55:41.254Z,100.00
2023-05-06T22:58:08.443Z,100.00
2023-05-06T23:00:35.667Z,100.00
2023-05-06T23:03:03.329Z,100.00
2023-05-06T23:05:30.835Z,100.00
2023-05-06T23:07:58.015Z,100.00
2023-05-06T23:10:25.306Z,100.00
2023-05-06T23:12:52.546Z,100.00
2023-05-06T23:15:19.766Z,99.96
2023-05-06T23:17:46.993Z,99.40
2023-05-06T23:20:14.176Z,99.22
2023-05-06T23:22:41.398Z,99.08
2023-05-06T23:25:10.871Z,98.33
2023-05-06T23:27:39.724Z,97.69
2023-05-06T23:30:08.825Z,97.65
2023-05-06T23:32:36.289Z,97.71
2023-05-06T23:35:05.307Z,97.62
2023-05-06T23:37:32.551Z,97.76
2023-05-06T23:39:59.899Z,97.49
2023-05-06T23:42:27.216Z,97.20
2023-05-06T23:44:54.385Z,96.94
2023-05-06T23:47:21.664Z,96.80
2023-05-06T23:49:48.917Z,96.69
2023-05-06T23:52:16.089Z,97.05
2023-05-06T23:54:43.316Z,97.63
2023-05-06T23:57:10.477Z,97.54
2023-05-06T23:59:37.648Z,97.29
